sensor_id;sensor_type;location;lat;lon;timestamp;pressure;altitude;pressure_sealevel;temperature;humidity
36234;BME280;43467;50.890;5.982;2023-08-07T00:00:33;99996.22;;;13.20;94.85
36234;BME280;43467;50.890;5.982;2023-08-07T00:03:00;100004.88;;;13.23;95.15
36234;BME280;43467;50.890;5.982;2023-08-07T00:05:25;100001.28;;;13.24;94.73
36234;BME280;43467;50.890;5.982;2023-08-07T00:07:51;99999.63;;;13.22;94.95
36234;BME280;43467;50.890;5.982;2023-08-07T00:10:16;99988.56;;;12.99;95.00
36234;BME280;43467;50.890;5.982;2023-08-07T00:12:42;99991.38;;;13.12;95.75
36234;BME280;43467;50.890;5.982;2023-08-07T00:15:08;100012.53;;;13.14;94.65
36234;BME280;43467;50.890;5.982;2023-08-07T00:17:34;99985.44;;;13.07;94.43
36234;BME280;43467;50.890;5.982;2023-08-07T00:19:59;100015.84;;;13.17;94.67
36234;BME280;43467;50.890;5.982;2023-08-07T00:22:25;100002.84;;;13.13;94.67
36234;BME280;43467;50.890;5.982;2023-08-07T00:24:51;100011.41;;;13.18;95.07
36234;BME280;43467;50.890;5.982;2023-08-07T00:27:16;100002.75;;;13.14;95.34
36234;BME280;43467;50.890;5.982;2023-08-07T00:29:42;99991.44;;;13.11;95.61
36234;BME280;43467;50.890;5.982;2023-08-07T00:32:07;100015.69;;;13.20;94.83
36234;BME280;43467;50.890;5.982;2023-08-07T00:34:34;99995.13;;;13.08;95.33
36234;BME280;43467;50.890;5.982;2023-08-07T00:37:00;100014.38;;;13.27;94.78
36234;BME280;43467;50.890;5.982;2023-08-07T00:39:25;100021.94;;;13.19;94.32
36234;BME280;43467;50.890;5.982;2023-08-07T00:41:51;100016.16;;;13.27;94.48
36234;BME280;43467;50.890;5.982;2023-08-07T00:44:17;100008.94;;;13.29;94.94
36234;BME280;43467;50.890;5.982;2023-08-07T00:46:42;100010.00;;;13.26;94.42
36234;BME280;43467;50.890;5.982;2023-08-07T00:49:09;100010.06;;;13.25;94.02
36234;BME280;43467;50.890;5.982;2023-08-07T00:51:37;100014.97;;;13.32;94.73
36234;BME280;43467;50.890;5.982;2023-08-07T00:54:04;99987.66;;;13.15;95.08
36234;BME280;43467;50.890;5.982;2023-08-07T00:56:31;100011.72;;;13.27;93.92
36234;BME280;43467;50.890;5.982;2023-08-07T00:58:58;99996.56;;;13.14;93.60
36234;BME280;43467;50.890;5.982;2023-08-07T01:01:24;100011.78;;;13.26;94.09
36234;BME280;43467;50.890;5.982;2023-08-07T01:03:50;100005.13;;;13.19;94.02
36234;BME280;43467;50.890;5.982;2023-08-07T01:06:15;99999.03;;;13.17;94.42
36234;BME280;43467;50.890;5.982;2023-08-07T01:08:41;100002.75;;;13.14;93.70
36234;BME280;43467;50.890;5.982;2023-08-07T01:11:24;99999.25;;;13.14;94.48
36234;BME280;43467;50.890;5.982;2023-08-07T01:14:00;100021.75;;;13.22;93.87
36234;BME280;43467;50.890;5.982;2023-08-07T01:19:09;100026.88;;;13.25;93.83
36234;BME280;43467;50.890;5.982;2023-08-07T01:21:39;100026.41;;;13.19;93.71
36234;BME280;43467;50.890;5.982;2023-08-07T01:24:05;100002.41;;;13.04;93.52
36234;BME280;43467;50.890;5.982;2023-08-07T01:26:31;100013.31;;;13.16;93.89
36234;BME280;43467;50.890;5.982;2023-08-07T01:29:32;100024.91;;;13.29;93.89
36234;BME280;43467;50.890;5.982;2023-08-07T01:32:03;100007.81;;;13.19;93.67
36234;BME280;43467;50.890;5.982;2023-08-07T01:34:34;100029.84;;;13.35;93.51
36234;BME280;43467;50.890;5.982;2023-08-07T01:37:02;100036.97;;;13.34;93.12
36234;BME280;43467;50.890;5.982;2023-08-07T01:39:29;100007.13;;;13.15;93.08
36234;BME280;43467;50.890;5.982;2023-08-07T01:41:56;100036.66;;;13.25;92.82
36234;BME280;43467;50.890;5.982;2023-08-07T01:44:22;100036.31;;;13.31;93.24
36234;BME280;43467;50.890;5.982;2023-08-07T01:46:47;100038.97;;;13.31;93.11
36234;BME280;43467;50.890;5.982;2023-08-07T01:49:13;100024.59;;;13.19;93.26
36234;BME280;43467;50.890;5.982;2023-08-07T01:51:38;100033.44;;;13.20;93.67
36234;BME280;43467;50.890;5.982;2023-08-07T01:54:04;100040.28;;;13.24;93.49
36234;BME280;43467;50.890;5.982;2023-08-07T01:56:29;100036.25;;;13.17;93.21
36234;BME280;43467;50.890;5.982;2023-08-07T01:58:55;100039.78;;;13.17;94.26
36234;BME280;43467;50.890;5.982;2023-08-07T02:01:21;100045.69;;;13.22;94.10
36234;BME280;43467;50.890;5.982;2023-08-07T02:03:46;100040.09;;;13.27;94.10
36234;BME280;43467;50.890;5.982;2023-08-07T02:06:12;100034.00;;;13.25;94.19
36234;BME280;43467;50.890;5.982;2023-08-07T02:08:37;100018.44;;;13.19;94.00
36234;BME280;43467;50.890;5.982;2023-08-07T02:11:03;100040.97;;;13.27;93.71
36234;BME280;43467;50.890;5.982;2023-08-07T02:13:28;100053.94;;;13.18;93.92
36234;BME280;43467;50.890;5.982;2023-08-07T02:15:54;100037.53;;;13.10;93.77
36234;BME280;43467;50.890;5.982;2023-08-07T02:18:20;100042.28;;;13.20;94.03
36234;BME280;43467;50.890;5.982;2023-08-07T02:20:45;100033.28;;;13.07;93.79
36234;BME280;43467;50.890;5.982;2023-08-07T02:23:11;99995.88;;;12.80;93.39
36234;BME280;43467;50.890;5.982;2023-08-07T02:25:37;100035.78;;;12.94;92.19
36234;BME280;43467;50.890;5.982;2023-08-07T02:28:03;100055.06;;;13.14;92.09
36234;BME280;43467;50.890;5.982;2023-08-07T02:30:28;100055.56;;;13.20;93.96
36234;BME280;43467;50.890;5.982;2023-08-07T02:32:54;100023.19;;;12.98;93.74
36234;BME280;43467;50.890;5.982;2023-08-07T02:35:20;100030.88;;;13.02;93.68
36234;BME280;43467;50.890;5.982;2023-08-07T02:37:45;100049.56;;;13.17;94.13
36234;BME280;43467;50.890;5.982;2023-08-07T02:40:11;100067.50;;;13.13;93.93
36234;BME280;43467;50.890;5.982;2023-08-07T02:42:40;100038.06;;;13.00;94.17
36234;BME280;43467;50.890;5.982;2023-08-07T02:45:06;100061.56;;;13.08;94.60
36234;BME280;43467;50.890;5.982;2023-08-07T02:47:32;100062.59;;;13.05;95.16
36234;BME280;43467;50.890;5.982;2023-08-07T02:49:57;100040.69;;;12.86;95.52
36234;BME280;43467;50.890;5.982;2023-08-07T02:52:23;100035.38;;;12.86;96.81
36234;BME280;43467;50.890;5.982;2023-08-07T02:54:48;100019.47;;;12.71;98.12
36234;BME280;43467;50.890;5.982;2023-08-07T02:57:14;100061.50;;;12.94;98.89
36234;BME280;43467;50.890;5.982;2023-08-07T02:59:39;100023.25;;;12.67;100.00
36234;BME280;43467;50.890;5.982;2023-08-07T03:02:05;100065.03;;;12.94;100.00
36234;BME280;43467;50.890;5.982;2023-08-07T03:04:30;100053.88;;;12.88;100.00
36234;BME280;43467;50.890;5.982;2023-08-07T03:06:56;100051.59;;;12.82;100.00
36234;BME280;43467;50.890;5.982;2023-08-07T03:09:21;100044.50;;;12.67;100.00
36234;BME280;43467;50.890;5.982;2023-08-07T03:11:47;100057.16;;;12.77;100.00
36234;BME280;43467;50.890;5.982;2023-08-07T03:14:13;100056.66;;;12.86;100.00
36234;BME280;43467;50.890;5.982;2023-08-07T03:16:38;100059.03;;;12.91;100.00
36234;BME280;43467;50.890;5.982;2023-08-07T03:19:04;100052.91;;;12.75;99.77
36234;BME280;43467;50.890;5.982;2023-08-07T03:21:29;100052.78;;;12.76;100.00
36234;BME280;43467;50.890;5.982;2023-08-07T03:23:55;100047.84;;;12.70;100.00
36234;BME280;43467;50.890;5.982;2023-08-07T03:26:20;100057.34;;;12.74;100.00
36234;BME280;43467;50.890;5.982;2023-08-07T03:28:46;100059.16;;;12.74;100.00
36234;BME280;43467;50.890;5.982;2023-08-07T03:31:12;100065.41;;;12.73;99.61
36234;BME280;43467;50.890;5.982;2023-08-07T03:33:38;100048.97;;;12.66;99.90
36234;BME280;43467;50.890;5.982;2023-08-07T03:36:03;100063.78;;;12.70;99.46
36234;BME280;43467;50.890;5.982;2023-08-07T03:38:29;100048.03;;;12.67;99.01
36234;BME280;43467;50.890;5.982;2023-08-07T03:40:54;100058.03;;;12.78;99.00
36234;BME280;43467;50.890;5.982;2023-08-07T03:43:20;100043.72;;;12.65;98.39
36234;BME280;43467;50.890;5.982;2023-08-07T03:45:45;100062.41;;;12.79;98.36
36234;BME280;43467;50.890;5.982;2023-08-07T03:48:11;100045.44;;;12.66;98.22
36234;BME280;43467;50.890;5.982;2023-08-07T03:50:36;100049.81;;;12.67;97.85
36234;BME280;43467;50.890;5.982;2023-08-07T03:53:03;100055.38;;;12.78;97.89
36234;BME280;43467;50.890;5.982;2023-08-07T03:55:30;99997.31;;;12.40;97.64
36234;BME280;43467;50.890;5.982;2023-08-07T03:57:56;100055.63;;;12.73;97.24
36234;BME280;43467;50.890;5.982;2023-08-07T04:00:21;100052.91;;;12.75;97.05
36234;BME280;43467;50.890;5.982;2023-08-07T04:02:48;100045.72;;;12.61;96.62
36234;BME280;43467;50.890;5.982;2023-08-07T04:05:13;100022.56;;;12.47;96.72
36234;BME280;43467;50.890;5.982;2023-08-07T04:07:38;100029.28;;;12.54;96.27
36234;BME280;43467;50.890;5.982;2023-08-07T04:10:05;100067.31;;;12.71;95.40
36234;BME280;43467;50.890;5.982;2023-08-07T04:12:31;100059.47;;;12.68;95.84
36234;BME280;43467;50.890;5.982;2023-08-07T04:14:57;100040.41;;;12.61;94.83
36234;BME280;43467;50.890;5.982;2023-08-07T04:17:22;100058.53;;;12.69;94.70
36234;BME280;43467;50.890;5.982;2023-08-07T04:19:48;100080.47;;;12.72;94.53
36234;BME280;43467;50.890;5.982;2023-08-07T04:22:13;100072.50;;;12.72;93.82
36234;BME280;43467;50.890;5.982;2023-08-07T04:24:39;100055.22;;;12.65;93.86
36234;BME280;43467;50.890;5.982;2023-08-07T04:27:05;100058.06;;;12.62;94.01
36234;BME280;43467;50.890;5.982;2023-08-07T04:29:30;100066.47;;;12.54;93.70
36234;BME280;43467;50.890;5.982;2023-08-07T04:31:56;100079.53;;;12.73;93.90
36234;BME280;43467;50.890;5.982;2023-08-07T04:34:21;100076.47;;;12.65;92.98
36234;BME280;43467;50.890;5.982;2023-08-07T04:36:47;100064.97;;;12.65;93.22
36234;BME280;43467;50.890;5.982;2023-08-07T04:39:13;100062.50;;;12.62;93.09
36234;BME280;43467;50.890;5.982;2023-08-07T04:41:39;100073.72;;;12.67;92.95
36234;BME280;43467;50.890;5.982;2023-08-07T04:44:04;100080.59;;;12.71;92.70
36234;BME280;43467;50.890;5.982;2023-08-07T04:46:30;100064.03;;;12.66;92.09
36234;BME280;43467;50.890;5.982;2023-08-07T04:48:55;100088.78;;;12.82;92.71
36234;BME280;43467;50.890;5.982;2023-08-07T04:51:21;100072.44;;;12.74;92.35
36234;BME280;43467;50.890;5.982;2023-08-07T04:53:47;100086.84;;;12.70;91.54
36234;BME280;43467;50.890;5.982;2023-08-07T04:56:16;100074.06;;;12.61;92.46
36234;BME280;43467;50.890;5.982;2023-08-07T04:58:42;100080.06;;;12.64;91.71
36234;BME280;43467;50.890;5.982;2023-08-07T05:01:07;100061.81;;;12.58;91.36
36234;BME280;43467;50.890;5.982;2023-08-07T05:03:34;100077.50;;;12.63;90.93
36234;BME280;43467;50.890;5.982;2023-08-07T05:06:00;100059.91;;;12.60;90.99
36234;BME280;43467;50.890;5.982;2023-08-07T05:08:26;100043.31;;;12.41;91.06
36234;BME280;43467;50.890;5.982;2023-08-07T05:10:52;100087.69;;;12.70;90.09
36234;BME280;43467;50.890;5.982;2023-08-07T05:13:18;100069.78;;;12.58;89.76
36234;BME280;43467;50.890;5.982;2023-08-07T05:15:43;100067.88;;;12.60;90.37
36234;BME280;43467;50.890;5.982;2023-08-07T05:18:08;100085.28;;;12.66;89.45
36234;BME280;43467;50.890;5.982;2023-08-07T05:20:34;100093.00;;;12.70;89.17
36234;BME280;43467;50.890;5.982;2023-08-07T05:23:00;100086.84;;;12.70;89.32
36234;BME280;43467;50.890;5.982;2023-08-07T05:25:25;100074.16;;;12.75;88.97
36234;BME280;43467;50.890;5.982;2023-08-07T05:27:51;100089.91;;;12.78;88.51
36234;BME280;43467;50.890;5.982;2023-08-07T05:30:16;100091.53;;;12.80;88.33
36234;BME280;43467;50.890;5.982;2023-08-07T05:32:42;100097.50;;;12.84;88.54
36234;BME280;43467;50.890;5.982;2023-08-07T05:35:08;100109.59;;;12.89;88.48
36234;BME280;43467;50.890;5.982;2023-08-07T05:37:34;100113.97;;;12.90;88.65
36234;BME280;43467;50.890;5.982;2023-08-07T05:40:01;100104.91;;;12.79;88.99
36234;BME280;43467;50.890;5.982;2023-08-07T05:42:26;100110.91;;;12.82;89.23
36234;BME280;43467;50.890;5.982;2023-08-07T05:44:52;100134.56;;;12.87;89.33
36234;BME280;43467;50.890;5.982;2023-08-07T05:47:18;100128.38;;;12.86;88.74
36234;BME280;43467;50.890;5.982;2023-08-07T05:49:43;100111.66;;;12.84;88.98
36234;BME280;43467;50.890;5.982;2023-08-07T05:52:09;100130.53;;;12.95;89.17
36234;BME280;43467;50.890;5.982;2023-08-07T05:54:34;100130.00;;;12.89;88.40
36234;BME280;43467;50.890;5.982;2023-08-07T05:57:00;100131.81;;;12.73;90.25
36234;BME280;43467;50.890;5.982;2023-08-07T05:59:26;100128.16;;;12.75;91.06
36234;BME280;43467;50.890;5.982;2023-08-07T06:01:52;100125.88;;;12.68;91.68
36234;BME280;43467;50.890;5.982;2023-08-07T06:04:20;100141.81;;;12.68;91.71
36234;BME280;43467;50.890;5.982;2023-08-07T06:06:47;100115.13;;;12.55;92.01
36234;BME280;43467;50.890;5.982;2023-08-07T06:09:13;100143.38;;;12.72;91.23
36234;BME280;43467;50.890;5.982;2023-08-07T06:11:41;100155.38;;;12.79;91.30
36234;BME280;43467;50.890;5.982;2023-08-07T06:14:06;100142.88;;;12.81;91.37
36234;BME280;43467;50.890;5.982;2023-08-07T06:16:32;100142.97;;;12.79;91.30
36234;BME280;43467;50.890;5.982;2023-08-07T06:18:57;100141.84;;;12.83;91.18
36234;BME280;43467;50.890;5.982;2023-08-07T06:21:23;100144.16;;;12.89;90.94
36234;BME280;43467;50.890;5.982;2023-08-07T06:23:49;100103.19;;;12.62;90.45
36234;BME280;43467;50.890;5.982;2023-08-07T06:26:14;100137.53;;;12.81;90.47
36234;BME280;43467;50.890;5.982;2023-08-07T06:28:41;100150.13;;;12.93;90.48
36234;BME280;43467;50.890;5.982;2023-08-07T06:31:08;100152.19;;;12.88;90.20
36234;BME280;43467;50.890;5.982;2023-08-07T06:33:34;100138.75;;;12.91;90.07
36234;BME280;43467;50.890;5.982;2023-08-07T06:36:00;100143.81;;;12.95;90.46
36234;BME280;43467;50.890;5.982;2023-08-07T06:38:26;100142.69;;;12.99;89.80
36234;BME280;43467;50.890;5.982;2023-08-07T06:40:54;100164.03;;;12.98;90.12
36234;BME280;43467;50.890;5.982;2023-08-07T06:43:20;100144.75;;;12.94;89.53
36234;BME280;43467;50.890;5.982;2023-08-07T06:45:55;100144.81;;;12.93;89.55
36234;BME280;43467;50.890;5.982;2023-08-07T06:48:21;100142.78;;;12.98;89.91
36234;BME280;43467;50.890;5.982;2023-08-07T06:50:47;100148.69;;;13.03;89.92
36234;BME280;43467;50.890;5.982;2023-08-07T06:53:13;100149.91;;;13.13;89.61
36234;BME280;43467;50.890;5.982;2023-08-07T06:55:38;100155.88;;;13.17;89.13
36234;BME280;43467;50.890;5.982;2023-08-07T06:58:06;100128.38;;;13.02;89.18
36234;BME280;43467;50.890;5.982;2023-08-07T07:00:31;100142.44;;;13.20;88.89
36234;BME280;43467;50.890;5.982;2023-08-07T07:02:57;100156.22;;;13.26;88.80
36234;BME280;43467;50.890;5.982;2023-08-07T07:05:23;100162.91;;;13.33;88.66
36234;BME280;43467;50.890;5.982;2023-08-07T07:07:52;100167.34;;;13.33;88.27
36234;BME280;43467;50.890;5.982;2023-08-07T07:10:17;100161.78;;;13.37;88.86
36234;BME280;43467;50.890;5.982;2023-08-07T07:12:43;100178.25;;;13.44;88.25
36234;BME280;43467;50.890;5.982;2023-08-07T07:15:09;100134.28;;;13.23;88.34
36234;BME280;43467;50.890;5.982;2023-08-07T07:17:36;100194.44;;;13.55;88.43
36234;BME280;43467;50.890;5.982;2023-08-07T07:20:01;100178.38;;;13.57;87.71
36234;BME280;43467;50.890;5.982;2023-08-07T07:22:27;100137.84;;;13.37;87.49
36234;BME280;43467;50.890;5.982;2023-08-07T07:24:54;100193.75;;;13.81;86.96
36234;BME280;43467;50.890;5.982;2023-08-07T07:27:19;100189.28;;;13.82;86.96
36234;BME280;43467;50.890;5.982;2023-08-07T07:29:47;100217.16;;;13.90;87.18
36234;BME280;43467;50.890;5.982;2023-08-07T07:32:13;100204.34;;;13.97;87.06
36234;BME280;43467;50.890;5.982;2023-08-07T07:34:38;100209.75;;;13.95;87.07
36234;BME280;43467;50.890;5.982;2023-08-07T07:37:04;100213.66;;;14.04;86.64
36234;BME280;43467;50.890;5.982;2023-08-07T07:39:30;100202.53;;;13.98;86.62
36234;BME280;43467;50.890;5.982;2023-08-07T07:41:55;100211.00;;;14.04;86.22
36234;BME280;43467;50.890;5.982;2023-08-07T07:44:21;100215.94;;;14.10;86.52
36234;BME280;43467;50.890;5.982;2023-08-07T07:46:46;100216.66;;;14.14;85.96
36234;BME280;43467;50.890;5.982;2023-08-07T07:49:12;100218.84;;;14.21;86.04
36234;BME280;43467;50.890;5.982;2023-08-07T07:51:37;100230.44;;;14.20;86.44
36234;BME280;43467;50.890;5.982;2023-08-07T07:54:03;100182.81;;;13.86;85.70
36234;BME280;43467;50.890;5.982;2023-08-07T07:56:29;100210.94;;;14.20;85.44
36234;BME280;43467;50.890;5.982;2023-08-07T07:58:55;100220.38;;;14.39;85.41
36234;BME280;43467;50.890;5.982;2023-08-07T08:01:20;100134.09;;;14.14;84.77
36234;BME280;43467;50.890;5.982;2023-08-07T08:03:46;100166.84;;;14.44;84.06
36234;BME280;43467;50.890;5.982;2023-08-07T08:06:12;100216.41;;;14.75;83.30
36234;BME280;43467;50.890;5.982;2023-08-07T08:08:38;100193.56;;;14.57;83.90
36234;BME280;43467;50.890;5.982;2023-08-07T08:11:04;100234.84;;;14.92;83.36
36234;BME280;43467;50.890;5.982;2023-08-07T08:13:30;100229.69;;;14.89;82.17
36234;BME280;43467;50.890;5.982;2023-08-07T08:15:55;100231.03;;;14.96;81.58
36234;BME280;43467;50.890;5.982;2023-08-07T08:18:21;100229.88;;;15.00;82.57
36234;BME280;43467;50.890;5.982;2023-08-07T08:20:46;100229.03;;;15.00;80.21
36234;BME280;43467;50.890;5.982;2023-08-07T08:23:12;100237.28;;;15.09;81.24
36234;BME280;43467;50.890;5.982;2023-08-07T08:25:37;100215.34;;;14.92;80.58
36234;BME280;43467;50.890;5.982;2023-08-07T08:28:03;100217.59;;;14.98;81.07
36234;BME280;43467;50.890;5.982;2023-08-07T08:30:29;100238.72;;;15.15;80.39
36234;BME280;43467;50.890;5.982;2023-08-07T08:32:55;100238.50;;;15.32;80.49
36234;BME280;43467;50.890;5.982;2023-08-07T08:35:20;100227.53;;;15.22;78.24
36234;BME280;43467;50.890;5.982;2023-08-07T08:37:46;100248.69;;;15.25;78.71
36234;BME280;43467;50.890;5.982;2023-08-07T08:40:12;100230.94;;;15.24;78.65
36234;BME280;43467;50.890;5.982;2023-08-07T08:42:43;100259.16;;;15.28;78.88
36234;BME280;43467;50.890;5.982;2023-08-07T08:45:09;100259.50;;;15.36;79.11
36234;BME280;43467;50.890;5.982;2023-08-07T08:47:39;100254.53;;;15.45;79.10
36234;BME280;43467;50.890;5.982;2023-08-07T08:50:07;100263.31;;;15.47;78.89
36234;BME280;43467;50.890;5.982;2023-08-07T08:52:33;100265.88;;;15.48;76.77
36234;BME280;43467;50.890;5.982;2023-08-07T08:55:01;100272.00;;;15.36;77.30
36234;BME280;43467;50.890;5.982;2023-08-07T08:57:27;100227.47;;;15.10;77.53
36234;BME280;43467;50.890;5.982;2023-08-07T08:59:53;100266.56;;;15.52;78.45
36234;BME280;43467;50.890;5.982;2023-08-07T09:02:18;100237.31;;;15.50;77.43
36234;BME280;43467;50.890;5.982;2023-08-07T09:04:45;100234.63;;;15.50;77.59
36234;BME280;43467;50.890;5.982;2023-08-07T09:07:13;100259.25;;;15.68;77.72
36234;BME280;43467;50.890;5.982;2023-08-07T09:09:40;100252.72;;;15.59;77.66
36234;BME280;43467;50.890;5.982;2023-08-07T09:12:19;100245.22;;;15.52;77.61
36234;BME280;43467;50.890;5.982;2023-08-07T09:14:49;100260.94;;;15.42;78.04
36234;BME280;43467;50.890;5.982;2023-08-07T09:17:19;100284.38;;;15.51;78.01
36234;BME280;43467;50.890;5.982;2023-08-07T09:19:46;100215.88;;;15.38;78.76
36234;BME280;43467;50.890;5.982;2023-08-07T09:22:11;100273.50;;;15.81;76.89
36234;BME280;43467;50.890;5.982;2023-08-07T09:24:37;100170.50;;;15.38;77.36
36234;BME280;43467;50.890;5.982;2023-08-07T09:27:03;100258.53;;;15.78;74.82
36234;BME280;43467;50.890;5.982;2023-08-07T09:29:32;100270.38;;;15.74;73.13
36234;BME280;43467;50.890;5.982;2023-08-07T09:32:06;100243.28;;;15.54;72.72
36234;BME280;43467;50.890;5.982;2023-08-07T09:34:32;100286.94;;;15.79;73.01
36234;BME280;43467;50.890;5.982;2023-08-07T09:36:58;100275.16;;;15.96;73.50
36234;BME280;43467;50.890;5.982;2023-08-07T09:39:23;100287.56;;;16.10;72.43
36234;BME280;43467;50.890;5.982;2023-08-07T09:41:54;100267.66;;;15.89;70.41
36234;BME280;43467;50.890;5.982;2023-08-07T09:44:21;100293.94;;;15.95;69.89
36234;BME280;43467;50.890;5.982;2023-08-07T09:46:46;100288.50;;;15.96;70.92
36234;BME280;43467;50.890;5.982;2023-08-07T09:49:12;100269.63;;;15.72;69.56
36234;BME280;43467;50.890;5.982;2023-08-07T09:51:45;100262.06;;;15.79;70.25
36234;BME280;43467;50.890;5.982;2023-08-07T09:54:11;100291.06;;;15.98;70.02
36234;BME280;43467;50.890;5.982;2023-08-07T09:56:38;100295.97;;;15.91;69.22
36234;BME280;43467;50.890;5.982;2023-08-07T09:59:04;100282.88;;;15.74;69.92
36234;BME280;43467;50.890;5.982;2023-08-07T10:01:30;100292.94;;;15.83;70.11
36234;BME280;43467;50.890;5.982;2023-08-07T10:03:57;100293.03;;;15.81;69.80
36234;BME280;43467;50.890;5.982;2023-08-07T10:06:22;100273.50;;;15.81;69.85
36234;BME280;43467;50.890;5.982;2023-08-07T10:08:48;100294.75;;;16.09;68.78
36234;BME280;43467;50.890;5.982;2023-08-07T10:11:15;100294.25;;;15.90;68.02
36234;BME280;43467;50.890;5.982;2023-08-07T10:13:44;100263.56;;;15.83;67.80
36234;BME280;43467;50.890;5.982;2023-08-07T10:16:11;100297.72;;;16.05;66.41
36234;BME280;43467;50.890;5.982;2023-08-07T10:18:37;100299.41;;;16.06;66.09
36234;BME280;43467;50.890;5.982;2023-08-07T10:21:05;100309.16;;;16.19;66.50
36234;BME280;43467;50.890;5.982;2023-08-07T10:23:34;100310.69;;;16.36;66.33
36234;BME280;43467;50.890;5.982;2023-08-07T10:26:01;100240.16;;;16.13;65.68
36234;BME280;43467;50.890;5.982;2023-08-07T10:28:29;100237.88;;;16.07;64.18
36234;BME280;43467;50.890;5.982;2023-08-07T10:30:58;100311.41;;;16.65;64.75
36234;BME280;43467;50.890;5.982;2023-08-07T10:33:24;100305.53;;;16.72;65.09
36234;BME280;43467;50.890;5.982;2023-08-07T10:35:52;100290.34;;;16.73;68.30
36234;BME280;43467;50.890;5.982;2023-08-07T10:38:19;100294.50;;;16.77;69.11
36234;BME280;43467;50.890;5.982;2023-08-07T10:43:29;100279.00;;;16.69;68.31
36234;BME280;43467;50.890;5.982;2023-08-07T10:46:20;100325.09;;;16.98;66.70
36234;BME280;43467;50.890;5.982;2023-08-07T10:48:49;100229.03;;;16.45;67.10
36234;BME280;43467;50.890;5.982;2023-08-07T10:51:19;100307.97;;;17.01;66.19
36234;BME280;43467;50.890;5.982;2023-08-07T10:53:47;100267.69;;;16.66;63.57
36234;BME280;43467;50.890;5.982;2023-08-07T10:56:18;100322.97;;;17.03;65.57
36234;BME280;43467;50.890;5.982;2023-08-07T10:58:51;100320.13;;;17.17;65.78
36234;BME280;43467;50.890;5.982;2023-08-07T11:01:21;100316.59;;;17.30;65.78
36234;BME280;43467;50.890;5.982;2023-08-07T11:03:54;100319.34;;;17.28;67.91
36234;BME280;43467;50.890;5.982;2023-08-07T11:06:25;100315.72;;;17.29;67.63
36234;BME280;43467;50.890;5.982;2023-08-07T11:08:54;100318.00;;;17.23;66.55
36234;BME280;43467;50.890;5.982;2023-08-07T11:11:20;100306.25;;;17.00;66.96
36234;BME280;43467;50.890;5.982;2023-08-07T11:13:46;100314.06;;;17.15;67.51
36234;BME280;43467;50.890;5.982;2023-08-07T11:16:13;100314.72;;;17.06;67.89
36234;BME280;43467;50.890;5.982;2023-08-07T11:18:38;100303.78;;;16.97;66.32
36234;BME280;43467;50.890;5.982;2023-08-07T11:21:11;100340.28;;;17.10;65.80
36234;BME280;43467;50.890;5.982;2023-08-07T11:23:38;100336.97;;;17.19;65.47
36234;BME280;43467;50.890;5.982;2023-08-07T11:26:03;100343.38;;;17.04;62.59
36234;BME280;43467;50.890;5.982;2023-08-07T11:28:29;100299.06;;;17.13;65.21
36234;BME280;43467;50.890;5.982;2023-08-07T11:30:56;100296.59;;;17.23;65.21
36234;BME280;43467;50.890;5.982;2023-08-07T11:33:26;100325.84;;;17.49;63.04
36234;BME280;43467;50.890;5.982;2023-08-07T11:35:52;100305.31;;;17.37;63.15
36234;BME280;43467;50.890;5.982;2023-08-07T11:38:32;100336.03;;;17.44;63.39
36234;BME280;43467;50.890;5.982;2023-08-07T11:41:05;100331.81;;;17.16;67.24
36234;BME280;43467;50.890;5.982;2023-08-07T11:43:34;100319.59;;;17.12;69.36
36234;BME280;43467;50.890;5.982;2023-08-07T11:46:02;100326.81;;;16.99;67.95
36234;BME280;43467;50.890;5.982;2023-08-07T11:48:29;100334.94;;;16.98;68.57
36234;BME280;43467;50.890;5.982;2023-08-07T11:50:56;100332.66;;;17.04;68.20
36234;BME280;43467;50.890;5.982;2023-08-07T11:53:24;100325.81;;;17.00;67.84
36234;BME280;43467;50.890;5.982;2023-08-07T11:56:02;100322.41;;;17.24;68.87
36234;BME280;43467;50.890;5.982;2023-08-07T11:58:43;100319.00;;;17.45;67.16
36234;BME280;43467;50.890;5.982;2023-08-07T12:01:13;100327.47;;;17.64;65.27
36234;BME280;43467;50.890;5.982;2023-08-07T12:03:42;100297.38;;;17.48;63.50
36234;BME280;43467;50.890;5.982;2023-08-07T12:06:09;100349.06;;;17.61;63.30
36234;BME280;43467;50.890;5.982;2023-08-07T12:08:36;100317.81;;;17.62;65.00
36234;BME280;43467;50.890;5.982;2023-08-07T12:11:22;100299.97;;;17.74;65.77
36234;BME280;43467;50.890;5.982;2023-08-07T12:13:47;100329.22;;;18.00;65.35
36234;BME280;43467;50.890;5.982;2023-08-07T12:16:14;100320.56;;;17.97;63.47
36234;BME280;43467;50.890;5.982;2023-08-07T12:18:44;100310.59;;;17.75;63.00
36234;BME280;43467;50.890;5.982;2023-08-07T12:21:21;100323.00;;;17.76;63.53
36234;BME280;43467;50.890;5.982;2023-08-07T12:23:49;100321.81;;;17.80;64.42
36234;BME280;43467;50.890;5.982;2023-08-07T12:26:16;100317.53;;;17.78;62.97
36234;BME280;43467;50.890;5.982;2023-08-07T12:28:41;100342.81;;;17.74;63.79
36234;BME280;43467;50.890;5.982;2023-08-07T12:31:07;100341.81;;;17.87;64.12
36234;BME280;43467;50.890;5.982;2023-08-07T12:33:33;100304.28;;;17.76;62.51
36234;BME280;43467;50.890;5.982;2023-08-07T12:35:59;100333.97;;;17.97;60.47
36234;BME280;43467;50.890;5.982;2023-08-07T12:38:25;100342.78;;;18.10;60.49
36234;BME280;43467;50.890;5.982;2023-08-07T12:40:51;100307.06;;;18.09;59.82
36234;BME280;43467;50.890;5.982;2023-08-07T12:43:16;100337.75;;;18.29;59.08
36234;BME280;43467;50.890;5.982;2023-08-07T12:45:42;100315.59;;;18.03;57.36
36234;BME280;43467;50.890;5.982;2023-08-07T12:48:08;100331.63;;;18.27;57.86
36234;BME280;43467;50.890;5.982;2023-08-07T12:50:35;100274.75;;;17.89;57.52
36234;BME280;43467;50.890;5.982;2023-08-07T12:53:00;100318.56;;;18.11;57.29